sensor_id;sensor_type;location;lat;lon;timestamp;temperature;humidity
29713;DHT22;16623;53.632;10.016;2022-10-19T00:00:45;12.20;99.90
29713;DHT22;16623;53.632;10.016;2022-10-19T00:03:10;12.30;99.90
29713;DHT22;16623;53.632;10.016;2022-10-19T00:05:36;12.30;99.90
29713;DHT22;16623;53.632;10.016;2022-10-19T00:08:01;12.30;99.90
29713;DHT22;16623;53.632;10.016;2022-10-19T00:10:27;12.30;99.90
29713;DHT22;16623;53.632;10.016;2022-10-19T00:12:53;12.30;99.90
29713;DHT22;16623;53.632;10.016;2022-10-19T00:15:19;12.40;99.90
29713;DHT22;16623;53.632;10.016;2022-10-19T00:17:44;12.40;99.90
29713;DHT22;16623;53.632;10.016;2022-10-19T00:20:11;12.40;99.90
29713;DHT22;16623;53.632;10.016;2022-10-19T00:22:36;12.50;99.90
29713;DHT22;16623;53.632;10.016;2022-10-19T00:25:03;12.40;99.90
29713;DHT22;16623;53.632;10.016;2022-10-19T00:27:28;12.50;99.90
29713;DHT22;16623;53.632;10.016;2022-10-19T00:29:54;12.50;99.90
29713;DHT22;16623;53.632;10.016;2022-10-19T00:32:19;12.50;99.90
29713;DHT22;16623;53.632;10.016;2022-10-19T00:34:45;12.50;99.90
29713;DHT22;16623;53.632;10.016;2022-10-19T00:37:10;12.40;99.90
29713;DHT22;16623;53.632;10.016;2022-10-19T00:39:36;12.40;99.90
29713;DHT22;16623;53.632;10.016;2022-10-19T00:42:02;12.40;99.90
29713;DHT22;16623;53.632;10.016;2022-10-19T00:46:57;12.40;99.90
29713;DHT22;16623;53.632;10.016;2022-10-19T00:49:27;12.40;99.90
29713;DHT22;16623;53.632;10.016;2022-10-19T00:51:56;12.40;99.90
29713;DHT22;16623;53.632;10.016;2022-10-19T00:54:22;12.40;99.90
29713;DHT22;16623;53.632;10.016;2022-10-19T00:56:52;12.50;99.90
29713;DHT22;16623;53.632;10.016;2022-10-19T00:59:20;12.40;99.90
29713;DHT22;16623;53.632;10.016;2022-10-19T01:01:48;12.40;99.90
29713;DHT22;16623;53.632;10.016;2022-10-19T01:04:13;12.50;99.90
29713;DHT22;16623;53.632;10.016;2022-10-19T01:06:40;12.50;99.90
29713;DHT22;16623;53.632;10.016;2022-10-19T01:09:07;12.50;99.90
29713;DHT22;16623;53.632;10.016;2022-10-19T01:12:02;12.40;99.90
29713;DHT22;16623;53.632;10.016;2022-10-19T01:22:49;12.40;99.90
29713;DHT22;16623;53.632;10.016;2022-10-19T01:25:23;12.40;99.90
29713;DHT22;16623;53.632;10.016;2022-10-19T01:30:52;12.30;99.90
29713;DHT22;16623;53.632;10.016;2022-10-19T01:39:06;12.40;99.90
29713;DHT22;16623;53.632;10.016;2022-10-19T01:41:48;12.40;99.90
29713;DHT22;16623;53.632;10.016;2022-10-19T01:44:59;12.40;99.90
29713;DHT22;16623;53.632;10.016;2022-10-19T01:47:25;12.30;99.90
29713;DHT22;16623;53.632;10.016;2022-10-19T01:50:02;12.30;99.90
29713;DHT22;16623;53.632;10.016;2022-10-19T01:52:31;12.20;99.90
29713;DHT22;16623;53.632;10.016;2022-10-19T01:54:59;12.30;99.90
29713;DHT22;16623;53.632;10.016;2022-10-19T01:57:33;12.30;99.90
29713;DHT22;16623;53.632;10.016;2022-10-19T02:00:02;12.20;99.90
29713;DHT22;16623;53.632;10.016;2022-10-19T02:02:34;12.20;99.90
29713;DHT22;16623;53.632;10.016;2022-10-19T02:05:02;12.10;99.90
29713;DHT22;16623;53.632;10.016;2022-10-19T02:07:29;12.10;99.90
29713;DHT22;16623;53.632;10.016;2022-10-19T02:09:56;12.10;99.90
29713;DHT22;16623;53.632;10.016;2022-10-19T02:12:23;12.10;99.90
29713;DHT22;16623;53.632;10.016;2022-10-19T02:14:53;12.10;99.90
29713;DHT22;16623;53.632;10.016;2022-10-19T02:17:25;12.10;99.90
29713;DHT22;16623;53.632;10.016;2022-10-19T02:19:52;12.10;99.90
29713;DHT22;16623;53.632;10.016;2022-10-19T02:22:18;12.10;99.90
29713;DHT22;16623;53.632;10.016;2022-10-19T02:24:43;12.10;99.90
29713;DHT22;16623;53.632;10.016;2022-10-19T02:27:09;12.10;99.90
29713;DHT22;16623;53.632;10.016;2022-10-19T02:29:36;12.00;99.90
29713;DHT22;16623;53.632;10.016;2022-10-19T02:32:02;12.00;99.90
29713;DHT22;16623;53.632;10.016;2022-10-19T02:34:28;11.90;99.90
29713;DHT22;16623;53.632;10.016;2022-10-19T02:36:54;12.90;99.90
29713;DHT22;16623;53.632;10.016;2022-10-19T02:39:20;11.90;99.90
29713;DHT22;16623;53.632;10.016;2022-10-19T02:41:57;11.70;99.90
29713;DHT22;16623;53.632;10.016;2022-10-19T02:44:38;11.90;99.90
29713;DHT22;16623;53.632;10.016;2022-10-19T02:47:09;11.90;99.90
29713;DHT22;16623;53.632;10.016;2022-10-19T02:49:36;12.00;99.90
29713;DHT22;16623;53.632;10.016;2022-10-19T02:52:07;11.90;99.90
29713;DHT22;16623;53.632;10.016;2022-10-19T02:54:33;11.90;99.90
29713;DHT22;16623;53.632;10.016;2022-10-19T02:56:59;12.00;99.90
29713;DHT22;16623;53.632;10.016;2022-10-19T02:59:25;12.10;99.90
29713;DHT22;16623;53.632;10.016;2022-10-19T03:01:51;12.10;99.90
29713;DHT22;16623;53.632;10.016;2022-10-19T03:04:17;12.00;99.90
29713;DHT22;16623;53.632;10.016;2022-10-19T03:06:42;12.00;99.90
29713;DHT22;16623;53.632;10.016;2022-10-19T03:09:08;12.10;99.90
29713;DHT22;16623;53.632;10.016;2022-10-19T03:11:34;11.90;99.90
29713;DHT22;16623;53.632;10.016;2022-10-19T03:13:59;11.80;99.90
29713;DHT22;16623;53.632;10.016;2022-10-19T03:16:25;11.70;99.90
29713;DHT22;16623;53.632;10.016;2022-10-19T03:18:50;11.80;99.90
29713;DHT22;16623;53.632;10.016;2022-10-19T03:21:17;11.80;99.90
29713;DHT22;16623;53.632;10.016;2022-10-19T03:23:43;11.80;99.90
29713;DHT22;16623;53.632;10.016;2022-10-19T03:26:12;11.80;99.90
29713;DHT22;16623;53.632;10.016;2022-10-19T03:28:39;11.80;99.90
29713;DHT22;16623;53.632;10.016;2022-10-19T03:31:04;11.90;99.90
29713;DHT22;16623;53.632;10.016;2022-10-19T03:33:30;11.90;99.90
29713;DHT22;16623;53.632;10.016;2022-10-19T03:36:22;11.80;99.90
29713;DHT22;16623;53.632;10.016;2022-10-19T03:38:52;11.80;99.90
29713;DHT22;16623;53.632;10.016;2022-10-19T03:41:19;11.90;99.90
29713;DHT22;16623;53.632;10.016;2022-10-19T03:43:45;11.90;99.90
29713;DHT22;16623;53.632;10.016;2022-10-19T03:46:11;12.00;99.90
29713;DHT22;16623;53.632;10.016;2022-10-19T03:48:37;12.00;99.90
29713;DHT22;16623;53.632;10.016;2022-10-19T03:51:06;12.00;99.90
29713;DHT22;16623;53.632;10.016;2022-10-19T03:53:32;12.00;99.90
29713;DHT22;16623;53.632;10.016;2022-10-19T03:56:13;12.00;99.90
29713;DHT22;16623;53.632;10.016;2022-10-19T03:58:39;12.00;99.90
29713;DHT22;16623;53.632;10.016;2022-10-19T04:01:08;12.00;99.90
29713;DHT22;16623;53.632;10.016;2022-10-19T04:03:34;12.10;99.90
29713;DHT22;16623;53.632;10.016;2022-10-19T04:06:07;12.10;99.90
29713;DHT22;16623;53.632;10.016;2022-10-19T04:08:33;12.10;99.90
29713;DHT22;16623;53.632;10.016;2022-10-19T04:11:04;11.90;99.90
29713;DHT22;16623;53.632;10.016;2022-10-19T04:13:34;11.90;99.90
29713;DHT22;16623;53.632;10.016;2022-10-19T04:16:00;11.90;99.90
29713;DHT22;16623;53.632;10.016;2022-10-19T04:18:26;11.80;99.90
29713;DHT22;16623;53.632;10.016;2022-10-19T04:20:56;12.00;99.90
29713;DHT22;16623;53.632;10.016;2022-10-19T04:23:22;12.00;99.90
29713;DHT22;16623;53.632;10.016;2022-10-19T04:25:47;11.90;99.90
29713;DHT22;16623;53.632;10.016;2022-10-19T04:28:12;11.90;99.90
29713;DHT22;16623;53.632;10.016;2022-10-19T04:30:38;12.00;99.90
29713;DHT22;16623;53.632;10.016;2022-10-19T04:33:05;11.90;99.90
29713;DHT22;16623;53.632;10.016;2022-10-19T04:35:30;12.00;99.90
29713;DHT22;16623;53.632;10.016;2022-10-19T04:37:58;12.00;99.90
29713;DHT22;16623;53.632;10.016;2022-10-19T04:40:24;12.00;99.90
29713;DHT22;16623;53.632;10.016;2022-10-19T04:42:49;12.00;99.90
29713;DHT22;16623;53.632;10.016;2022-10-19T04:45:15;12.00;99.90
29713;DHT22;16623;53.632;10.016;2022-10-19T04:47:41;12.10;99.90
29713;DHT22;16623;53.632;10.016;2022-10-19T04:50:07;12.00;99.90
29713;DHT22;16623;53.632;10.016;2022-10-19T04:52:32;12.10;99.90
29713;DHT22;16623;53.632;10.016;2022-10-19T04:54:59;12.10;99.90
29713;DHT22;16623;53.632;10.016;2022-10-19T04:57:25;12.10;99.90
29713;DHT22;16623;53.632;10.016;2022-10-19T04:59:51;12.00;99.90
29713;DHT22;16623;53.632;10.016;2022-10-19T05:02:16;11.90;99.90
29713;DHT22;16623;53.632;10.016;2022-10-19T05:04:42;12.00;99.90
29713;DHT22;16623;53.632;10.016;2022-10-19T05:07:07;11.90;99.90
29713;DHT22;16623;53.632;10.016;2022-10-19T05:09:33;11.90;99.90
29713;DHT22;16623;53.632;10.016;2022-10-19T05:11:59;11.90;99.90
29713;DHT22;16623;53.632;10.016;2022-10-19T05:14:27;12.00;99.90
29713;DHT22;16623;53.632;10.016;2022-10-19T05:16:52;11.90;99.90
29713;DHT22;16623;53.632;10.016;2022-10-19T05:19:18;11.80;99.90
29713;DHT22;16623;53.632;10.016;2022-10-19T05:21:43;11.80;99.90
29713;DHT22;16623;53.632;10.016;2022-10-19T05:24:11;11.70;99.90
29713;DHT22;16623;53.632;10.016;2022-10-19T05:26:37;11.70;99.90
29713;DHT22;16623;53.632;10.016;2022-10-19T05:29:03;11.70;99.90
29713;DHT22;16623;53.632;10.016;2022-10-19T05:31:32;11.70;99.90
29713;DHT22;16623;53.632;10.016;2022-10-19T05:33:58;11.70;99.90
29713;DHT22;16623;53.632;10.016;2022-10-19T05:38:53;11.70;99.90
29713;DHT22;16623;53.632;10.016;2022-10-19T05:41:21;11.80;99.90
29713;DHT22;16623;53.632;10.016;2022-10-19T05:43:50;11.80;99.90
29713;DHT22;16623;53.632;10.016;2022-10-19T05:46:16;11.80;99.90
29713;DHT22;16623;53.632;10.016;2022-10-19T05:48:43;11.80;99.90
29713;DHT22;16623;53.632;10.016;2022-10-19T05:51:11;11.90;99.90
29713;DHT22;16623;53.632;10.016;2022-10-19T05:53:41;11.80;99.90
29713;DHT22;16623;53.632;10.016;2022-10-19T05:56:08;11.80;99.90
29713;DHT22;16623;53.632;10.016;2022-10-19T05:58:37;11.80;99.90
29713;DHT22;16623;53.632;10.016;2022-10-19T06:01:02;11.80;99.90
29713;DHT22;16623;53.632;10.016;2022-10-19T06:03:28;11.70;99.90
29713;DHT22;16623;53.632;10.016;2022-10-19T06:05:55;11.60;99.90
29713;DHT22;16623;53.632;10.016;2022-10-19T06:08:22;11.60;99.90
29713;DHT22;16623;53.632;10.016;2022-10-19T06:10:49;11.60;99.90
29713;DHT22;16623;53.632;10.016;2022-10-19T06:13:16;11.60;99.90
29713;DHT22;16623;53.632;10.016;2022-10-19T06:15:42;11.70;99.90
29713;DHT22;16623;53.632;10.016;2022-10-19T06:18:11;11.90;99.90
29713;DHT22;16623;53.632;10.016;2022-10-19T06:20:39;11.70;99.90
29713;DHT22;16623;53.632;10.016;2022-10-19T06:23:05;11.80;99.90
29713;DHT22;16623;53.632;10.016;2022-10-19T06:25:32;11.90;99.90
29713;DHT22;16623;53.632;10.016;2022-10-19T06:27:58;12.00;99.90
29713;DHT22;16623;53.632;10.016;2022-10-19T06:30:24;11.90;99.90
29713;DHT22;16623;53.632;10.016;2022-10-19T06:32:50;11.90;99.90
29713;DHT22;16623;53.632;10.016;2022-10-19T06:35:16;11.90;99.90
29713;DHT22;16623;53.632;10.016;2022-10-19T06:37:42;12.00;99.90
29713;DHT22;16623;53.632;10.016;2022-10-19T06:40:08;12.00;99.90
29713;DHT22;16623;53.632;10.016;2022-10-19T06:42:34;12.00;99.90
29713;DHT22;16623;53.632;10.016;2022-10-19T06:45:09;12.00;99.90
29713;DHT22;16623;53.632;10.016;2022-10-19T06:47:35;12.10;99.90
29713;DHT22;16623;53.632;10.016;2022-10-19T06:50:05;12.00;99.90
29713;DHT22;16623;53.632;10.016;2022-10-19T06:52:32;12.10;99.90
29713;DHT22;16623;53.632;10.016;2022-10-19T06:54:58;12.20;99.90
29713;DHT22;16623;53.632;10.016;2022-10-19T06:57:23;12.20;99.90
29713;DHT22;16623;53.632;10.016;2022-10-19T06:59:49;12.20;99.90
29713;DHT22;16623;53.632;10.016;2022-10-19T07:02:14;12.20;99.90
29713;DHT22;16623;53.632;10.016;2022-10-19T07:04:40;12.20;99.90
29713;DHT22;16623;53.632;10.016;2022-10-19T07:07:05;12.30;99.90
29713;DHT22;16623;53.632;10.016;2022-10-19T07:09:32;12.30;99.90
29713;DHT22;16623;53.632;10.016;2022-10-19T07:11:57;12.40;99.90
29713;DHT22;16623;53.632;10.016;2022-10-19T07:14:23;12.40;99.90
29713;DHT22;16623;53.632;10.016;2022-10-19T07:16:53;12.40;99.90
29713;DHT22;16623;53.632;10.016;2022-10-19T07:19:19;12.40;99.90
29713;DHT22;16623;53.632;10.016;2022-10-19T07:21:45;12.40;99.90
29713;DHT22;16623;53.632;10.016;2022-10-19T07:24:10;12.40;99.90
29713;DHT22;16623;53.632;10.016;2022-10-19T07:26:37;12.40;99.90
29713;DHT22;16623;53.632;10.016;2022-10-19T07:29:02;12.40;99.90
29713;DHT22;16623;53.632;10.016;2022-10-19T07:31:29;12.50;99.90
29713;DHT22;16623;53.632;10.016;2022-10-19T07:33:57;12.50;99.90
29713;DHT22;16623;53.632;10.016;2022-10-19T07:36:23;12.50;99.90
29713;DHT22;16623;53.632;10.016;2022-10-19T07:38:50;12.50;99.90
29713;DHT22;16623;53.632;10.016;2022-10-19T07:41:18;12.60;99.90
29713;DHT22;16623;53.632;10.016;2022-10-19T07:43:45;12.60;99.90
29713;DHT22;16623;53.632;10.016;2022-10-19T07:46:16;12.70;99.90
29713;DHT22;16623;53.632;10.016;2022-10-19T07:48:44;12.70;99.90
29713;DHT22;16623;53.632;10.016;2022-10-19T07:51:11;12.70;99.90
29713;DHT22;16623;53.632;10.016;2022-10-19T07:53:37;12.80;99.90
29713;DHT22;16623;53.632;10.016;2022-10-19T07:56:09;12.80;99.90
29713;DHT22;16623;53.632;10.016;2022-10-19T07:58:36;12.90;99.90
29713;DHT22;16623;53.632;10.016;2022-10-19T08:01:06;12.90;99.90
29713;DHT22;16623;53.632;10.016;2022-10-19T08:03:33;12.90;99.90
29713;DHT22;16623;53.632;10.016;2022-10-19T08:06:04;12.90;99.90
29713;DHT22;16623;53.632;10.016;2022-10-19T08:08:30;12.80;99.90
29713;DHT22;16623;53.632;10.016;2022-10-19T08:10:56;12.90;99.90
29713;DHT22;16623;53.632;10.016;2022-10-19T08:13:23;12.90;99.90
29713;DHT22;16623;53.632;10.016;2022-10-19T08:15:48;13.00;99.90
29713;DHT22;16623;53.632;10.016;2022-10-19T08:18:14;12.90;99.90
29713;DHT22;16623;53.632;10.016;2022-10-19T08:20:41;12.90;99.90
29713;DHT22;16623;53.632;10.016;2022-10-19T08:23:07;13.00;99.90
29713;DHT22;16623;53.632;10.016;2022-10-19T08:25:32;12.90;99.90
29713;DHT22;16623;53.632;10.016;2022-10-19T08:27:58;13.00;99.90
29713;DHT22;16623;53.632;10.016;2022-10-19T08:30:23;12.90;99.90
29713;DHT22;16623;53.632;10.016;2022-10-19T08:32:49;12.90;99.90
29713;DHT22;16623;53.632;10.016;2022-10-19T08:35:14;13.00;99.90
29713;DHT22;16623;53.632;10.016;2022-10-19T08:37:40;12.90;99.90
29713;DHT22;16623;53.632;10.016;2022-10-19T08:40:16;13.00;99.90
29713;DHT22;16623;53.632;10.016;2022-10-19T08:45:47;12.90;99.90
29713;DHT22;16623;53.632;10.016;2022-10-19T08:48:27;12.90;99.90
29713;DHT22;16623;53.632;10.016;2022-10-19T08:50:55;13.00;99.90
29713;DHT22;16623;53.632;10.016;2022-10-19T08:53:36;13.00;99.90
29713;DHT22;16623;53.632;10.016;2022-10-19T09:04:36;13.00;99.90
29713;DHT22;16623;53.632;10.016;2022-10-19T09:07:24;13.00;99.90
29713;DHT22;16623;53.632;10.016;2022-10-19T09:10:00;12.90;99.90
29713;DHT22;16623;53.632;10.016;2022-10-19T09:12:36;12.80;99.90
29713;DHT22;16623;53.632;10.016;2022-10-19T09:15:12;12.70;99.90
29713;DHT22;16623;53.632;10.016;2022-10-19T09:17:38;12.50;99.90
29713;DHT22;16623;53.632;10.016;2022-10-19T09:22:42;12.40;99.90
29713;DHT22;16623;53.632;10.016;2022-10-19T09:25:19;12.40;99.90
29713;DHT22;16623;53.632;10.016;2022-10-19T09:27:48;12.30;99.90
29713;DHT22;16623;53.632;10.016;2022-10-19T09:30:20;12.30;99.90
29713;DHT22;16623;53.632;10.016;2022-10-19T09:32:49;12.20;99.90
29713;DHT22;16623;53.632;10.016;2022-10-19T09:37:50;12.30;99.90
29713;DHT22;16623;53.632;10.016;2022-10-19T09:40:19;12.30;99.90
29713;DHT22;16623;53.632;10.016;2022-10-19T09:42:45;12.30;99.90
29713;DHT22;16623;53.632;10.016;2022-10-19T09:45:19;12.30;99.90
29713;DHT22;16623;53.632;10.016;2022-10-19T09:47:50;12.40;99.90
29713;DHT22;16623;53.632;10.016;2022-10-19T09:50:24;12.40;99.90
29713;DHT22;16623;53.632;10.016;2022-10-19T09:52:58;12.60;99.90
29713;DHT22;16623;53.632;10.016;2022-10-19T09:55:40;12.70;99.90
29713;DHT22;16623;53.632;10.016;2022-10-19T09:58:17;12.70;99.90
29713;DHT22;16623;53.632;10.016;2022-10-19T10:00:45;12.70;99.90
29713;DHT22;16623;53.632;10.016;2022-10-19T10:03:41;12.70;99.90
29713;DHT22;16623;53.632;10.016;2022-10-19T10:06:12;12.80;99.90
29713;DHT22;16623;53.632;10.016;2022-10-19T10:08:50;13.00;99.90
29713;DHT22;16623;53.632;10.016;2022-10-19T10:11:30;13.30;99.90
29713;DHT22;16623;53.632;10.016;2022-10-19T10:13:58;13.50;99.90
29713;DHT22;16623;53.632;10.016;2022-10-19T10:16:29;13.80;99.90
29713;DHT22;16623;53.632;10.016;2022-10-19T10:19:04;14.00;99.90
29713;DHT22;16623;53.632;10.016;2022-10-19T10:21:54;14.00;99.90
29713;DHT22;16623;53.632;10.016;2022-10-19T10:24:31;14.20;99.90
29713;DHT22;16623;53.632;10.016;2022-10-19T10:26:59;14.30;99.90
29713;DHT22;16623;53.632;10.016;2022-10-19T10:31:54;13.80;99.90
29713;DHT22;16623;53.632;10.016;2022-10-19T10:35:00;13.60;99.90
29713;DHT22;16623;53.632;10.016;2022-10-19T10:37:39;13.50;99.90
29713;DHT22;16623;53.632;10.016;2022-10-19T10:40:28;13.30;99.90
29713;DHT22;16623;53.632;10.016;2022-10-19T10:43:07;13.40;99.90
29713;DHT22;16623;53.632;10.016;2022-10-19T10:45:38;13.40;99.90
29713;DHT22;16623;53.632;10.016;2022-10-19T10:50:52;13.60;99.90
29713;DHT22;16623;53.632;10.016;2022-10-19T10:53:39;13.60;99.90
29713;DHT22;16623;53.632;10.016;2022-10-19T10:56:21;13.70;99.90
29713;DHT22;16623;53.632;10.016;2022-10-19T11:01:20;13.60;99.90
29713;DHT22;16623;53.632;10.016;2022-10-19T11:04:00;13.70;99.90
29713;DHT22;16623;53.632;10.016;2022-10-19T11:06:26;13.80;99.90
29713;DHT22;16623;53.632;10.016;2022-10-19T11:09:05;13.80;99.90
29713;DHT22;16623;53.632;10.016;2022-10-19T11:11:35;14.00;99.90
29713;DHT22;16623;53.632;10.016;2022-10-19T11:16:44;14.00;99.90
29713;DHT22;16623;53.632;10.016;2022-10-19T11:22:13;14.10;99.90
29713;DHT22;16623;53.632;10.016;2022-10-19T11:30:16;13.60;99.90
29713;DHT22;16623;53.632;10.016;2022-10-19T11:33:29;13.50;99.90
29713;DHT22;16623;53.632;10.016;2022-10-19T11:36:03;13.40;99.90
29713;DHT22;16623;53.632;10.016;2022-10-19T11:38:51;13.30;99.90
29713;DHT22;16623;53.632;10.016;2022-10-19T11:41:38;13.20;99.90
29713;DHT22;16623;53.632;10.016;2022-10-19T11:49:59;13.40;99.90
29713;DHT22;16623;53.632;10.016;2022-10-19T11:55:26;13.80;99.90
29713;DHT22;16623;53.632;10.016;2022-10-19T11:58:07;14.10;99.90
29713;DHT22;16623;53.632;10.016;2022-10-19T12:06:30;14.20;99.90
29713;DHT22;16623;53.632;10.016;2022-10-19T12:09:19;14.30;99.90
29713;DHT22;16623;53.632;10.016;2022-10-19T12:14:29;14.40;99.90
29713;DHT22;16623;53.632;10.016;2022-10-19T12:17:01;14.30;99.90
29713;DHT22;16623;53.632;10.016;2022-10-19T12:19:43;14.50;99.90
29713;DHT22;16623;53.632;10.016;2022-10-19T12:22:24;14.50;99.90
29713;DHT22;16623;53.632;10.016;2022-10-19T12:24:52;14.80;99.90
29713;DHT22;16623;53.632;10.016;2022-10-19T12:27:33;14.90;99.90
29713;DHT22;16623;53.632;10.016;2022-10-19T12:30:18;14.90;99.90
29713;DHT22;16623;53.632;10.016;2022-10-19T12:33:25;14.90;99.90
29713;DHT22;16623;53.632;10.016;2022-10-19T12:47:14;14.80;99.90
29713;DHT22;16623;53.632;10.016;2022-10-19T12:49:48;14.90;99.90
29713;DHT22;16623;53.632;10.016;2022-10-19T12:52:32;14.70;99.90
29713;DHT22;16623;53.632;10.016;2022-10-19T12:57:47;14.80;99.90
29713;DHT22;16623;53.632;10.016;2022-10-19T13:00:25;14.80;99.90
29713;DHT22;16623;53.632;10.016;2022-10-19T13:02:58;14.90;99.90
29713;DHT22;16623;53.632;10.016;2022-10-19T13:05:27;15.00;99.90
29713;DHT22;16623;53.632;10.016;2022-10-19T13:07:53;14.90;99.90
29713;DHT22;16623;53.632;10.016;2022-10-19T13:10:25;14.80;99.90
29713;DHT22;16623;53.632;10.016;2022-10-19T13:12:52;14.70;99.90
29713;DHT22;16623;53.632;10.016;2022-10-19T13:17:59;14.80;99.90
29713;DHT22;16623;53.632;10.016;2022-10-19T13:25:33;14.60;99.90
29713;DHT22;16623;53.632;10.016;2022-10-19T13:28:00;14.50;99.90
29713;DHT22;16623;53.632;10.016;2022-10-19T13:36:08;14.50;99.90
29713;DHT22;16623;53.632;10.016;2022-10-19T13:38:47;14.40;99.90
29713;DHT22;16623;53.632;10.016;2022-10-19T13:44:19;14.30;99.90
29713;DHT22;16623;53.632;10.016;2022-10-19T13:47:29;14.30;99.90
29713;DHT22;16623;53.632;10.016;2022-10-19T13:49:54;14.30;99.90
29713;DHT22;16623;53.632;10.016;2022-10-19T13:52:38;14.10;99.90
29713;DHT22;16623;53.632;10.016;2022-10-19T14:01:26;14.20;99.90
29713;DHT22;16623;53.632;10.016;2022-10-19T14:06:49;14.20;99.90
29713;DHT22;16623;53.632;10.016;2022-10-19T14:11:46;14.30;99.90
29713;DHT22;16623;53.632;10.016;2022-10-19T14:14:23;14.30;99.90
29713;DHT22;16623;53.632;10.016;2022-10-19T14:17:01;14.20;99.90
29713;DHT22;16623;53.632;10.016;2022-10-19T14:19:47;14.10;99.90
29713;DHT22;16623;53.632;10.016;2022-10-19T14:22:31;14.10;99.90
29713;DHT22;16623;53.632;10.016;2022-10-19T14:25:21;14.20;99.90
29713;DHT22;16623;53.632;10.016;2022-10-19T14:27:52;14.20;99.90
29713;DHT22;16623;53.632;10.016;2022-10-19T14:30:27;14.10;99.90
29713;DHT22;16623;53.632;10.016;2022-10-19T14:32:54;14.00;99.90
29713;DHT22;16623;53.632;10.016;2022-10-19T14:35:25;13.90;99.90
29713;DHT22;16623;53.632;10.016;2022-10-19T14:37:51;13.90;99.90
29713;DHT22;16623;53.632;10.016;2022-10-19T14:40:32;13.80;99.90
29713;DHT22;16623;53.632;10.016;2022-10-19T14:42:59;13.70;99.90
29713;DHT22;16623;53.632;10.016;2022-10-19T14:45:29;13.70;99.90
29713;DHT22;16623;53.632;10.016;2022-10-19T14:48:02;13.50;99.90
29713;DHT22;16623;53.632;10.016;2022-10-19T14:50:42;13.50;99.90
29713;DHT22;16623;53.632;10.016;2022-10-19T14:53:32;13.30;99.90
29713;DHT22;16623;53.632;10.016;2022-10-19T14:56:06;13.20;99.90
29713;DHT22;16623;53.632;10.016;2022-10-19T14:58:49;13.10;99.90
29713;DHT22;16623;53.632;10.016;2022-10-19T15:01:17;13.00;99.90
29713;DHT22;16623;53.632;10.016;2022-10-19T15:03:44;13.00;99.90
29713;DHT22;16623;53.632;10.016;2022-10-19T15:06:23;13.00;99.90
29713;DHT22;16623;53.632;10.016;2022-10-19T15:08:57;12.90;99.90
29713;DHT22;16623;53.632;10.016;2022-10-19T15:11:28;13.00;99.90
29713;DHT22;16623;53.632;10.016;2022-10-19T15:14:19;13.00;99.90
29713;DHT22;16623;53.632;10.016;2022-10-19T15:16:54;13.00;99.90
29713;DHT22;16623;53.632;10.016;2022-10-19T15:19:32;13.00;99.90
29713;DHT22;16623;53.632;10.016;2022-10-19T15:22:17;13.00;99.90
29713;DHT22;16623;53.632;10.016;2022-10-19T15:24:55;13.00;99.90
29713;DHT22;16623;53.632;10.016;2022-10-19T15:27:27;13.00;99.90
29713;DHT22;16623;53.632;10.016;2022-10-19T15:30:02;13.00;99.90
29713;DHT22;16623;53.632;10.016;2022-10-19T15:32:36;12.90;99.90
29713;DHT22;16623;53.632;10.016;2022-10-19T15:35:22;12.90;99.90
29713;DHT22;16623;53.632;10.016;2022-10-19T15:37:50;12.90;99.90
29713;DHT22;16623;53.632;10.016;2022-10-19T15:40:31;12.80;99.90
29713;DHT22;16623;53.632;10.016;2022-10-19T15:42:58;12.90;99.90
29713;DHT22;16623;53.632;10.016;2022-10-19T15:45:35;12.90;99.90
29713;DHT22;16623;53.632;10.016;2022-10-19T15:50:48;12.80;99.90
29713;DHT22;16623;53.632;10.016;2022-10-19T15:53:16;12.70;99.90
29713;DHT22;16623;53.632;10.016;2022-10-19T15:55:42;12.70;99.90
29713;DHT22;16623;53.632;10.016;2022-10-19T15:58:09;12.60;99.90
29713;DHT22;16623;53.632;10.016;2022-10-19T16:00:35;12.50;99.90
29713;DHT22;16623;53.632;10.016;2022-10-19T16:03:02;12.50;99.90
29713;DHT22;16623;53.632;10.016;2022-10-19T16:05:28;12.50;99.90
29713;DHT22;16623;53.632;10.016;2022-10-19T16:07:54;12.40;99.90
29713;DHT22;16623;53.632;10.016;2022-10-19T16:10:23;12.30;99.90
29713;DHT22;16623;53.632;10.016;2022-10-19T16:12:49;12.30;99.90
29713;DHT22;16623;53.632;10.016;2022-10-19T16:15:17;12.20;99.90
29713;DHT22;16623;53.632;10.016;2022-10-19T16:17:48;12.20;99.90
29713;DHT22;16623;53.632;10.016;2022-10-19T16:20:15;12.00;99.90
29713;DHT22;16623;53.632;10.016;2022-10-19T16:22:41;12.00;99.90
29713;DHT22;16623;53.632;10.016;2022-10-19T16:25:07;11.90;99.90
29713;DHT22;16623;53.632;10.016;2022-10-19T16:27:33;11.90;99.90
29713;DHT22;16623;53.632;10.016;2022-10-19T16:29:58;11.80;99.90
29713;DHT22;16623;53.632;10.016;2022-10-19T16:32:24;11.70;99.90
29713;DHT22;16623;53.632;10.016;2022-10-19T16:34:49;11.60;99.90
29713;DHT22;16623;53.632;10.016;2022-10-19T16:37:15;11.60;99.90
29713;DHT22;16623;53.632;10.016;2022-10-19T16:39:41;11.60;99.90
29713;DHT22;16623;53.632;10.016;2022-10-19T16:42:06;11.60;99.90
29713;DHT22;16623;53.632;10.016;2022-10-19T16:44:32;11.50;99.90
29713;DHT22;16623;53.632;10.016;2022-10-19T16:46:57;11.50;99.90
29713;DHT22;16623;53.632;10.016;2022-10-19T16:49:24;11.40;99.90
29713;DHT22;16623;53.632;10.016;2022-10-19T16:51:49;11.30;99.90
29713;DHT22;16623;53.632;10.016;2022-10-19T16:54:15;11.30;99.90
29713;DHT22;16623;53.632;10.016;2022-10-19T16:56:46;11.30;99.90
29713;DHT22;16623;53.632;10.016;2022-10-19T16:59:14;11.20;99.90
29713;DHT22;16623;53.632;10.016;2022-10-19T17:01:41;11.10;99.90
29713;DHT22;16623;53.632;10.016;2022-10-19T17:04:09;11.10;99.90
29713;DHT22;16623;53.632;10.016;2022-10-19T17:06:35;11.00;99.90
29713;DHT22;16623;53.632;10.016;2022-10-19T17:09:02;11.00;99.90
29713;DHT22;16623;53.632;10.016;2022-10-19T17:11:30;11.00;99.90
29713;DHT22;16623;53.632;10.016;2022-10-19T17:13:58;12.10;99.90
29713;DHT22;16623;53.632;10.016;2022-10-19T17:16:28;10.90;99.90
29713;DHT22;16623;53.632;10.016;2022-10-19T17:18:55;10.80;99.90
29713;DHT22;16623;53.632;10.016;2022-10-19T17:21:23;10.80;99.90
29713;DHT22;16623;53.632;10.016;2022-10-19T17:23:55;10.80;99.90
29713;DHT22;16623;53.632;10.016;2022-10-19T17:26:36;10.70;99.90
29713;DHT22;16623;53.632;10.016;2022-10-19T17:29:06;10.60;99.90
29713;DHT22;16623;53.632;10.016;2022-10-19T17:31:32;10.50;99.90
29713;DHT22;16623;53.632;10.016;2022-10-19T17:33:58;10.40;99.90